METAR Data
IDs: Format: Raw Decoded Include TAF

Data at: 1510 UTC 27 Nov 2021

EGNX 271450Z 33020G35KT 9999 BKN029 03/M02 Q1001